Time;durP1;ratioP1;P1;durP2;ratioP2;P2;SDS_P1;SDS_P2;PMS_P1;PMS_P2;Temp;Humidity;BMP_temperature;BMP_pressure;BME280_temperature;BME280_humidity;BME280_pressure;Samples;Min_cycle;Max_cycle;Signal;HPM_P1;HPM_P2
2022/07/30 00:00:11;;;;;;;11.55;8.32;;;26.80;99.90;;;;;;5050494;28;20481;-71
2022/07/30 00:02:37;;;;;;;12.57;7.55;;;26.80;99.90;;;;;;5050494;28;20047;-71
2022/07/30 00:05:04;;;;;;;13.95;8.85;;;26.90;99.90;;;;;;5050707;28;20032;-71
2022/07/30 00:07:30;;;;;;;13.18;7.88;;;26.90;99.90;;;;;;5050622;28;20061;-71
2022/07/30 00:09:56;;;;;;;14.40;7.68;;;26.90;99.90;;;;;;5050312;28;20021;-71
2022/07/30 00:12:22;;;;;;;12.23;7.90;;;26.90;99.90;;;;;;5050461;28;20160;-71
2022/07/30 00:14:48;;;;;;;15.43;8.43;;;26.90;99.90;;;;;;5050525;28;20530;-71
2022/07/30 00:17:14;;;;;;;15.93;9.23;;;26.90;99.90;;;;;;5050403;28;20029;-71
2022/07/30 00:19:40;;;;;;;14.63;8.40;;;26.90;99.90;;;;;;5050203;28;20047;-71
2022/07/30 00:22:06;;;;;;;15.57;6.95;;;26.90;99.90;;;;;;5050222;28;20055;-71
2022/07/30 00:24:33;;;;;;;13.68;6.60;;;26.90;99.90;;;;;;5050052;28;20461;-70
2022/07/30 00:26:59;;;;;;;14.55;8.10;;;26.90;99.90;;;;;;5049951;28;20029;-70
2022/07/30 00:29:25;;;;;;;14.02;7.15;;;26.80;99.90;;;;;;5050013;28;20426;-71
2022/07/30 00:31:51;;;;;;;;;;;26.80;99.90;;;;;;5050887;28;20025;-71
2022/07/30 00:34:17;;;;;;;;;;;26.80;99.90;;;;;;5051565;28;20015;-71
2022/07/30 00:36:43;;;;;;;12.35;6.90;;;26.80;99.90;;;;;;5054265;28;19920;-71
2022/07/30 00:39:09;;;;;;;12.85;6.53;;;26.80;99.90;;;;;;5054607;28;20396;-71
2022/07/30 00:41:51;;;;;;;13.07;6.07;;;26.90;99.90;;;;;;5054201;28;20025;-71
2022/07/30 00:44:17;;;;;;;11.00;6.30;;;26.90;99.90;;;;;;5054486;28;20029;-72
2022/07/30 00:46:43;;;;;;;10.05;5.38;;;26.90;99.90;;;;;;5054301;28;20124;-71
2022/07/30 00:49:09;;;;;;;8.38;5.57;;;26.90;99.90;;;;;;5054229;28;20349;-71
2022/07/30 00:51:35;;;;;;;11.15;5.95;;;26.90;99.90;;;;;;5053850;28;20036;-70
2022/07/30 00:54:02;;;;;;;12.00;5.57;;;26.90;99.90;;;;;;5053640;28;20037;-70
2022/07/30 00:56:28;;;;;;;8.50;5.55;;;26.80;99.90;;;;;;5053802;28;20124;-70
2022/07/30 00:58:54;;;;;;;11.00;5.63;;;26.80;99.90;;;;;;5052266;28;20056;-71
2022/07/30 01:01:20;;;;;;;15.10;5.50;;;26.80;99.90;;;;;;5053962;28;20063;-70
2022/07/30 01:03:46;;;;;;;11.18;5.72;;;26.80;99.90;;;;;;5053872;28;20029;-70
2022/07/30 01:06:12;;;;;;;8.05;5.55;;;26.80;99.90;;;;;;5053852;28;20025;-70
2022/07/30 01:08:38;;;;;;;11.40;5.78;;;26.90;99.90;;;;;;5053768;28;20108;-71
2022/07/30 01:11:04;;;;;;;14.60;6.32;;;26.90;99.90;;;;;;5053521;28;20108;-70
2022/07/30 01:13:30;;;;;;;13.32;6.88;;;26.80;99.90;;;;;;5053328;28;20591;-71
2022/07/30 01:15:57;;;;;;;10.85;5.97;;;26.80;99.90;;;;;;5053310;28;20358;-71
2022/07/30 01:19:47;;;;;;;12.05;5.97;;;26.80;99.90;;;;;;5053316;28;20029;-71
2022/07/30 01:21:14;;;;;;;11.20;6.15;;;26.80;99.90;;;;;;5053710;28;20048;-70
2022/07/30 01:23:45;;;;;;;11.95;6.28;;;26.80;99.90;;;;;;5053048;28;20053;-72
2022/07/30 01:26:16;;;;;;;12.45;6.63;;;26.80;99.90;;;;;;5053288;28;20021;-70
2022/07/30 01:28:48;;;;;;;9.00;6.07;;;26.80;99.90;;;;;;5053473;28;20057;-70
2022/07/30 01:31:16;;;;;;;14.27;6.07;;;26.80;99.90;;;;;;5053513;28;20032;-70
2022/07/30 01:33:45;;;;;;;14.13;6.70;;;26.80;99.90;;;;;;5053196;28;20033;-70
2022/07/30 01:36:14;;;;;;;11.98;5.90;;;26.70;99.90;;;;;;5053011;28;20445;-71
2022/07/30 01:38:43;;;;;;;12.02;6.80;;;26.70;99.90;;;;;;5053187;28;20100;-71
2022/07/30 01:41:11;;;;;;;10.73;6.80;;;26.70;99.90;;;;;;5053196;28;20439;-70
2022/07/30 01:43:38;;;;;;;13.30;8.77;;;26.70;99.90;;;;;;5052745;28;20452;-70
2022/07/30 01:46:05;;;;;;;13.82;8.18;;;26.70;99.90;;;;;;5052071;28;20033;-70
2022/07/30 01:48:35;;;;;;;14.80;7.60;;;26.60;99.90;;;;;;5052676;28;20070;-71
2022/07/30 01:51:04;;;;;;;13.15;7.68;;;26.60;99.90;;;;;;5051226;28;20032;-71
2022/07/30 01:53:35;;;;;;;12.25;7.55;;;26.60;99.90;;;;;;5050989;28;20365;-70
2022/07/30 01:56:02;;;;;;;12.45;7.22;;;26.60;99.90;;;;;;5053001;28;20457;-70
2022/07/30 01:58:33;;;;;;;14.00;6.30;;;26.50;99.90;;;;;;5052842;28;20039;-71
2022/07/30 02:00:59;;;;;;;13.57;7.72;;;26.50;99.90;;;;;;5052676;28;20052;-70
2022/07/30 02:03:26;;;;;;;12.90;8.07;;;26.50;99.90;;;;;;5052504;28;20021;-70
2022/07/30 02:05:58;;;;;;;12.00;6.82;;;26.60;99.90;;;;;;5052639;28;20029;-70
2022/07/30 02:08:35;;;;;;;12.98;6.55;;;26.60;99.90;;;;;;5052594;28;20091;-69
2022/07/30 02:11:10;;;;;;;9.18;6.13;;;26.60;99.90;;;;;;5052460;28;20035;-70
2022/07/30 02:13:51;;;;;;;10.63;5.15;;;26.60;99.90;;;;;;5052520;28;20029;-71
2022/07/30 02:16:29;;;;;;;7.90;4.20;;;26.60;99.90;;;;;;5052408;28;20044;-70
2022/07/30 02:19:08;;;;;;;10.23;4.45;;;26.50;99.90;;;;;;5052415;28;20078;-70
2022/07/30 02:21:40;;;;;;;11.60;4.95;;;26.50;99.90;;;;;;5050604;28;20029;-71
2022/07/30 02:24:11;;;;;;;8.70;4.65;;;26.50;99.90;;;;;;5051977;28;20512;-69
2022/07/30 02:26:40;;;;;;;9.25;4.70;;;26.40;99.90;;;;;;5052455;28;20048;-70
2022/07/30 02:29:07;;;;;;;11.98;4.65;;;26.50;99.90;;;;;;5052153;28;20025;-70
2022/07/30 02:31:35;;;;;;;9.60;4.30;;;26.40;99.90;;;;;;5051656;28;20393;-70
2022/07/30 02:34:05;;;;;;;9.88;4.05;;;26.30;99.90;;;;;;5051758;28;20502;-70
2022/07/30 02:36:32;;;;;;;7.10;3.55;;;26.30;99.90;;;;;;5051764;28;20093;-70
2022/07/30 02:39:00;;;;;;;7.30;3.58;;;26.20;99.90;;;;;;5051565;28;20029;-71
2022/07/30 02:41:28;;;;;;;7.75;3.58;;;26.10;99.90;;;;;;5051672;28;20096;-72
2022/07/30 02:43:55;;;;;;;8.32;3.50;;;26.10;99.90;;;;;;5051529;28;20082;-70
2022/07/30 02:46:23;;;;;;;13.48;3.85;;;26.10;99.90;;;;;;5051624;28;20052;-71
2022/07/30 02:48:50;;;;;;;9.25;3.60;;;26.00;99.90;;;;;;5050923;28;20021;-70
2022/07/30 02:51:18;;;;;;;8.38;3.70;;;26.10;99.90;;;;;;5050894;28;20025;-70
2022/07/30 02:53:46;;;;;;;13.07;4.07;;;26.00;99.90;;;;;;5051466;28;20091;-70
2022/07/30 02:56:14;;;;;;;9.93;3.83;;;26.10;99.90;;;;;;5051087;28;20490;-70
2022/07/30 02:58:43;;;;;;;11.25;4.03;;;26.10;99.90;;;;;;5050492;28;20519;-70
2022/07/30 03:01:12;;;;;;;11.73;4.15;;;26.00;99.90;;;;;;5051098;28;20062;-71
2022/07/30 03:03:41;;;;;;;11.40;4.10;;;26.00;99.90;;;;;;5050095;28;20108;-70
2022/07/30 03:06:09;;;;;;;12.20;3.65;;;25.90;99.90;;;;;;5050882;28;20440;-70
2022/07/30 03:08:36;;;;;;;12.77;4.13;;;25.90;99.90;;;;;;5050894;28;20064;-70
2022/07/30 03:11:04;;;;;;;9.48;3.83;;;25.90;99.90;;;;;;5050915;28;20025;-70
2022/07/30 03:13:30;;;;;;;9.40;3.50;;;25.90;99.90;;;;;;5050579;28;20507;-71
2022/07/30 03:15:59;;;;;;;11.20;3.60;;;25.90;99.90;;;;;;5050732;28;20033;-70
2022/07/30 03:18:31;;;;;;;8.85;3.40;;;25.90;99.90;;;;;;5050734;28;20421;-70
2022/07/30 03:20:59;;;;;;;11.32;3.20;;;26.00;99.90;;;;;;5051561;28;20116;-70
2022/07/30 03:23:27;;;;;;;9.20;3.63;;;26.10;99.90;;;;;;5051233;28;20049;-70
2022/07/30 03:26:01;;;;;;;6.22;2.90;;;26.10;99.90;;;;;;5051539;28;20033;-71
2022/07/30 03:28:30;;;;;;;7.97;3.45;;;26.10;99.90;;;;;;5051006;28;20036;-71
2022/07/30 03:30:57;;;;;;;9.13;3.30;;;26.10;99.90;;;;;;5051589;28;20436;-71
2022/07/30 03:33:24;;;;;;;;;;;26.10;99.90;;;;;;5051834;28;20070;-71
2022/07/30 03:35:51;;;;;;;8.25;3.10;;;26.20;99.90;;;;;;5051459;28;19905;-71
2022/07/30 03:38:18;;;;;;;8.57;3.00;;;26.10;99.90;;;;;;5051654;28;20108;-71
2022/07/30 03:40:45;;;;;;;9.20;3.30;;;26.10;99.90;;;;;;5051250;28;20152;-71
2022/07/30 03:43:13;;;;;;;6.70;3.25;;;26.10;99.90;;;;;;5051358;28;20040;-71
2022/07/30 03:45:42;;;;;;;6.43;3.10;;;26.00;99.90;;;;;;5049799;28;20029;-71
2022/07/30 03:48:11;;;;;;;15.00;3.50;;;26.00;99.90;;;;;;5051297;28;20021;-71
2022/07/30 03:50:39;;;;;;;12.07;3.75;;;26.10;99.90;;;;;;5051446;28;20028;-71
2022/07/30 03:53:07;;;;;;;8.18;3.25;;;26.00;99.90;;;;;;5051304;28;20119;-71
2022/07/30 03:55:34;;;;;;;10.45;3.42;;;26.00;99.90;;;;;;5049418;28;20505;-71
2022/07/30 03:58:01;;;;;;;6.90;3.47;;;25.90;99.90;;;;;;5051117;28;20031;-71
2022/07/30 04:00:28;;;;;;;9.88;3.10;;;25.90;99.90;;;;;;5051430;28;20083;-71
2022/07/30 04:02:54;;;;;;;8.02;3.25;;;26.00;99.90;;;;;;5050900;28;20482;-71
2022/07/30 04:05:20;;;;;;;10.02;3.08;;;26.00;99.90;;;;;;5051190;28;20033;-71
2022/07/30 04:07:47;;;;;;;10.65;3.30;;;26.00;99.90;;;;;;5050709;28;20044;-71
2022/07/30 04:10:14;;;;;;;9.90;3.17;;;26.00;99.90;;;;;;5050921;28;20465;-71
2022/07/30 04:12:41;;;;;;;8.43;3.08;;;26.00;99.90;;;;;;5050701;28;20125;-71
2022/07/30 04:15:07;;;;;;;8.07;3.55;;;26.00;99.90;;;;;;5050581;28;20342;-71
2022/07/30 04:17:45;;;;;;;8.88;3.35;;;26.00;99.90;;;;;;5050871;28;20051;-71
2022/07/30 04:20:23;;;;;;;15.15;4.03;;;26.10;99.90;;;;;;5051645;28;20036;-71
2022/07/30 04:22:51;;;;;;;9.40;3.35;;;26.10;99.90;;;;;;5051932;28;20068;-71
2022/07/30 04:25:18;;;;;;;8.18;3.17;;;26.10;99.90;;;;;;5051247;28;20453;-71
2022/07/30 04:27:45;;;;;;;6.80;2.92;;;26.10;99.90;;;;;;5051148;28;20468;-71
2022/07/30 04:30:11;;;;;;;7.75;3.17;;;26.10;99.90;;;;;;5051105;28;20206;-71
2022/07/30 04:32:37;;;;;;;;;;;26.10;99.90;;;;;;5051041;28;20052;-71
2022/07/30 04:35:03;;;;;;;;;;;26.20;99.90;;;;;;5051222;28;19944;-71
2022/07/30 04:37:29;;;;;;;6.10;3.08;;;26.30;99.90;;;;;;5049531;28;20230;-71
2022/07/30 04:39:59;;;;;;;6.93;2.40;;;26.30;99.90;;;;;;5051612;28;20032;-71
2022/07/30 04:42:26;;;;;;;6.28;2.78;;;26.40;99.90;;;;;;5051506;28;20468;-71
2022/07/30 04:44:53;;;;;;;8.13;3.15;;;26.40;99.90;;;;;;5051553;28;20166;-71
2022/07/30 04:47:20;;;;;;;6.45;2.85;;;26.40;99.90;;;;;;5051497;28;20024;-71
2022/07/30 04:49:47;;;;;;;7.25;3.10;;;26.30;99.90;;;;;;5051576;28;20032;-70
2022/07/30 04:52:15;;;;;;;8.70;2.88;;;26.30;99.90;;;;;;5051436;28;20029;-69
2022/07/30 04:54:53;;;;;;;10.82;3.10;;;26.20;99.90;;;;;;5051523;28;20036;-71
2022/07/30 04:57:21;;;;;;;5.57;2.95;;;26.20;99.90;;;;;;5051835;28;20123;-70
2022/07/30 04:59:47;;;;;;;11.05;3.28;;;26.20;99.90;;;;;;5051310;28;20115;-70
2022/07/30 05:02:17;;;;;;;9.80;3.05;;;26.20;99.90;;;;;;5051679;28;20060;-70
2022/07/30 05:04:45;;;;;;;10.82;3.42;;;26.20;99.90;;;;;;5051246;28;20036;-70
2022/07/30 05:07:13;;;;;;;12.10;3.50;;;26.20;99.90;;;;;;5051676;28;20048;-69
2022/07/30 05:09:40;;;;;;;8.27;3.30;;;26.20;99.90;;;;;;5051212;28;20033;-69
2022/07/30 05:12:06;;;;;;;8.38;3.17;;;26.30;99.90;;;;;;5051453;28;20041;-70
2022/07/30 05:14:32;;;;;;;14.10;3.03;;;26.30;99.90;;;;;;5051117;28;20056;-70
2022/07/30 05:16:58;;;;;;;6.72;2.90;;;26.50;99.90;;;;;;5051107;28;20055;-70
2022/07/30 05:19:24;;;;;;;8.90;3.38;;;26.80;99.90;;;;;;5051038;28;20134;-70
2022/07/30 05:21:51;;;;;;;7.78;3.25;;;26.90;99.90;;;;;;5053729;28;20036;-70
2022/07/30 05:24:17;;;;;;;;;;;27.30;99.90;;;;;;5054467;28;20044;-70
2022/07/30 05:26:43;;;;;;;;;;;28.70;99.90;;;;;;5054597;28;19905;-70
2022/07/30 05:29:09;;;;;;;7.78;2.85;;;30.80;99.90;;;;;;5054109;28;19912;-71
2022/07/30 05:31:35;;;;;;;10.73;3.00;;;33.20;99.90;;;;;;5054647;28;20057;-70
2022/07/30 05:34:01;;;;;;;;;;;35.30;99.90;;;;;;5054631;28;20120;-71
2022/07/30 05:36:27;;;;;;;7.93;3.10;;;37.20;99.90;;;;;;5053973;28;20399;-71
2022/07/30 05:38:53;;;;;;;8.95;3.05;;;38.90;99.90;;;;;;5053996;28;20052;-71
2022/07/30 05:41:19;;;;;;;17.65;3.25;;;40.00;98.00;;;;;;5054072;28;20017;-71
2022/07/30 05:43:45;;;;;;;8.13;2.78;;;40.70;96.00;;;;;;5054228;28;20477;-71
2022/07/30 05:46:11;;;;;;;6.70;2.33;;;41.80;93.40;;;;;;5053983;28;20036;-71
2022/07/30 05:48:37;;;;;;;10.32;2.53;;;42.10;91.60;;;;;;5053849;28;20025;-71
2022/07/30 05:51:04;;;;;;;19.70;3.03;;;42.10;90.00;;;;;;5053382;28;20033;-71
2022/07/30 05:53:31;;;;;;;6.13;2.17;;;41.80;88.90;;;;;;5053459;28;20532;-71
2022/07/30 05:55:57;;;;;;;10.60;2.83;;;41.40;90.60;;;;;;5053836;28;20021;-71
2022/07/30 05:58:23;;;;;;;6.57;2.45;;;41.80;89.70;;;;;;5053629;28;20115;-71
2022/07/30 06:00:49;;;;;;;11.35;2.67;;;42.80;88.20;;;;;;5053381;28;20017;-71
2022/07/30 06:03:15;;;;;;;8.32;2.45;;;43.60;86.50;;;;;;5053836;28;20108;-71
2022/07/30 06:05:41;;;;;;;9.10;2.40;;;44.40;84.30;;;;;;5053368;28;20096;-71
2022/07/30 06:08:07;;;;;;;9.23;2.38;;;45.10;81.90;;;;;;5053353;28;20104;-71
2022/07/30 06:10:33;;;;;;;7.80;2.40;;;45.40;81.30;;;;;;5051871;28;20395;-72
2022/07/30 06:12:59;;;;;;;9.48;2.30;;;45.70;79.90;;;;;;5053030;28;20476;-72
2022/07/30 06:15:26;;;;;;;8.65;2.30;;;46.10;77.80;;;;;;5053059;28;20495;-72
2022/07/30 06:17:52;;;;;;;10.82;2.58;;;46.40;77.30;;;;;;5053849;28;20050;-72
2022/07/30 06:20:20;;;;;;;12.52;2.20;;;45.60;77.50;;;;;;5053648;28;20021;-72
2022/07/30 06:22:47;;;;;;;12.38;2.45;;;45.60;77.30;;;;;;5053721;28;20024;-72
2022/07/30 06:25:13;;;;;;;10.38;2.47;;;46.10;76.40;;;;;;5053765;28;20183;-72
2022/07/30 06:27:39;;;;;;;11.30;2.50;;;46.30;75.90;;;;;;5053621;28;20029;-72
2022/07/30 06:30:07;;;;;;;10.65;2.60;;;46.70;74.80;;;;;;5053423;28;20511;-72
2022/07/30 06:32:34;;;;;;;7.85;2.58;;;46.80;74.20;;;;;;5053598;28;20044;-72
2022/07/30 06:35:01;;;;;;;9.23;2.47;;;46.70;73.60;;;;;;5053311;28;20021;-72
2022/07/30 06:37:27;;;;;;;8.20;2.28;;;46.90;72.50;;;;;;5053512;28;20033;-72
2022/07/30 06:39:53;;;;;;;7.07;2.55;;;47.10;72.80;;;;;;5051784;28;20043;-72
2022/07/30 06:42:20;;;;;;;8.30;2.58;;;47.20;71.40;;;;;;5053160;28;20473;-72
2022/07/30 06:44:46;;;;;;;8.57;2.58;;;46.70;71.50;;;;;;5053362;28;20025;-72
2022/07/30 06:47:12;;;;;;;7.30;2.60;;;46.70;71.50;;;;;;5053109;28;20029;-72
2022/07/30 06:49:38;;;;;;;10.30;2.70;;;47.00;71.30;;;;;;5053482;28;20161;-72
2022/07/30 06:52:05;;;;;;;6.55;2.17;;;47.50;70.50;;;;;;5053050;28;20100;-72
2022/07/30 06:54:32;;;;;;;14.65;2.58;;;48.10;69.30;;;;;;5052923;28;20373;-72
2022/07/30 06:56:58;;;;;;;8.48;2.35;;;47.70;68.00;;;;;;5052895;28;20087;-72
2022/07/30 06:59:26;;;;;;;10.65;2.50;;;48.40;66.90;;;;;;5052946;28;20029;-71
2022/07/30 07:01:53;;;;;;;20.00;3.22;;;48.30;66.50;;;;;;5052840;28;20067;-71
2022/07/30 07:04:19;;;;;;;12.60;2.75;;;48.40;66.00;;;;;;5053103;28;20025;-71
2022/07/30 07:06:45;;;;;;;13.30;2.53;;;48.60;64.30;;;;;;5052815;28;20025;-71
2022/07/30 07:09:11;;;;;;;7.00;2.25;;;47.70;65.40;;;;;;5052644;28;20469;-71
2022/07/30 07:11:37;;;;;;;9.23;2.20;;;47.80;64.90;;;;;;5052979;28;20032;-71
2022/07/30 07:14:03;;;;;;;10.57;2.40;;;47.60;65.00;;;;;;5052792;28;20033;-71
2022/07/30 07:16:29;;;;;;;14.52;2.30;;;47.80;64.70;;;;;;5052298;28;20024;-71
2022/07/30 07:18:55;;;;;;;10.00;2.40;;;47.60;64.50;;;;;;5052513;28;20024;-71
2022/07/30 07:21:22;;;;;;;10.05;2.50;;;47.10;64.50;;;;;;5052589;28;20135;-71
2022/07/30 07:23:48;;;;;;;11.27;2.20;;;46.90;65.30;;;;;;5052211;28;20052;-71
2022/07/30 07:26:15;;;;;;;9.65;2.50;;;46.50;65.20;;;;;;5052401;28;20104;-70
2022/07/30 07:28:41;;;;;;;11.13;2.55;;;45.70;66.30;;;;;;5052729;28;20323;-71
2022/07/30 07:31:08;;;;;;;7.78;2.42;;;44.90;67.00;;;;;;5052306;28;20025;-70
2022/07/30 07:33:34;;;;;;;10.23;2.65;;;43.80;67.40;;;;;;5052153;28;20477;-71
2022/07/30 07:36:00;;;;;;;9.38;2.63;;;42.80;69.70;;;;;;5052274;28;20028;-71
2022/07/30 07:38:27;;;;;;;12.23;2.65;;;41.70;71.40;;;;;;5051928;28;20035;-70
2022/07/30 07:40:53;;;;;;;9.98;3.08;;;40.70;72.50;;;;;;5051984;28;20024;-73
2022/07/30 07:43:19;;;;;;;5.80;3.00;;;39.50;75.10;;;;;;5051562;28;20154;-70
2022/07/30 07:45:45;;;;;;;11.00;2.90;;;38.50;76.40;;;;;;5052066;28;20477;-70
2022/07/30 07:48:11;;;;;;;6.43;2.85;;;38.50;77.30;;;;;;5052205;28;20021;-70
2022/07/30 07:50:38;;;;;;;9.73;2.78;;;38.10;77.10;;;;;;5050382;28;20025;-70
2022/07/30 07:53:05;;;;;;;7.95;2.80;;;37.70;77.70;;;;;;5051298;28;20396;-71
2022/07/30 07:55:31;;;;;;;7.82;2.78;;;37.70;78.80;;;;;;5051371;28;20033;-70
2022/07/30 07:57:57;;;;;;;11.43;3.50;;;37.80;78.60;;;;;;5051536;28;20362;-70
2022/07/30 08:00:23;;;;;;;18.48;3.38;;;37.20;80.60;;;;;;5051749;28;20052;-70
2022/07/30 08:02:49;;;;;;;8.60;3.13;;;37.60;80.50;;;;;;5050912;28;20148;-70
2022/07/30 08:05:16;;;;;;;11.50;5.60;;;37.90;80.80;;;;;;5051162;28;20032;-72
2022/07/30 08:07:43;;;;;;;9.05;2.97;;;38.10;81.60;;;;;;5050542;28;20025;-71
2022/07/30 08:10:12;;;;;;;11.50;3.03;;;38.30;80.50;;;;;;5050319;28;20032;-71
2022/07/30 08:12:39;;;;;;;9.35;3.22;;;38.50;80.00;;;;;;5050319;28;20052;-70
2022/07/30 08:15:06;;;;;;;8.02;3.03;;;38.70;81.10;;;;;;5050429;28;20100;-71
2022/07/30 08:17:32;;;;;;;8.80;2.85;;;38.40;83.00;;;;;;5050867;28;20025;-71
2022/07/30 08:19:59;;;;;;;10.20;3.00;;;37.90;84.30;;;;;;5051589;28;20025;-70
2022/07/30 08:22:26;;;;;;;12.57;3.35;;;37.70;85.00;;;;;;5051519;28;20021;-70
2022/07/30 08:24:52;;;;;;;13.68;3.63;;;37.00;86.80;;;;;;5051382;28;20045;-71
2022/07/30 08:27:18;;;;;;;9.05;3.55;;;37.20;87.90;;;;;;5051449;28;20103;-72
2022/07/30 08:29:45;;;;;;;9.60;3.58;;;37.40;87.00;;;;;;5051817;28;20366;-71
2022/07/30 08:32:11;;;;;;;9.30;3.40;;;37.30;87.50;;;;;;5051913;28;20032;-70
2022/07/30 08:34:37;;;;;;;12.50;4.05;;;37.10;89.10;;;;;;5051484;28;20033;-71
2022/07/30 08:37:03;;;;;;;8.85;3.30;;;36.90;89.70;;;;;;5050032;28;20362;-72
2022/07/30 08:39:29;;;;;;;10.70;3.72;;;36.70;89.30;;;;;;5051626;28;20032;-71
2022/07/30 08:41:56;;;;;;;13.35;3.75;;;36.70;89.50;;;;;;5052030;28;20477;-71
2022/07/30 08:44:23;;;;;;;10.90;3.65;;;36.60;90.20;;;;;;5050302;28;20036;-71
2022/07/30 08:46:54;;;;;;;11.27;3.53;;;36.40;90.40;;;;;;5052086;28;20032;-71
2022/07/30 08:49:22;;;;;;;9.52;3.40;;;36.40;90.50;;;;;;5051323;28;20025;-71
2022/07/30 08:51:49;;;;;;;13.85;3.70;;;36.30;90.70;;;;;;5051104;28;20031;-71
2022/07/30 08:54:17;;;;;;;13.07;3.53;;;36.40;90.90;;;;;;5051416;28;20041;-71
2022/07/30 08:56:44;;;;;;;9.77;3.75;;;36.80;90.60;;;;;;5054411;28;20066;-71
2022/07/30 08:59:10;;;;;;;11.05;3.85;;;36.60;90.60;;;;;;5054860;28;20032;-71
2022/07/30 09:01:37;;;;;;;6.75;3.10;;;36.60;90.70;;;;;;5055252;28;20017;-71
2022/07/30 09:04:03;;;;;;;8.20;3.60;;;36.80;90.30;;;;;;5055631;28;20396;-71
2022/07/30 09:06:29;;;;;;;8.10;3.35;;;36.50;90.30;;;;;;5055078;28;20021;-71
2022/07/30 09:08:55;;;;;;;13.45;4.10;;;36.50;90.70;;;;;;5055437;28;20028;-71
2022/07/30 09:11:21;;;;;;;10.02;3.53;;;36.30;91.30;;;;;;5054926;28;20112;-72
2022/07/30 09:13:49;;;;;;;11.02;3.92;;;36.10;91.50;;;;;;5055362;28;20045;-71
2022/07/30 09:16:26;;;;;;;7.38;3.15;;;35.60;92.20;;;;;;5054838;28;20032;-71
2022/07/30 09:18:54;;;;;;;11.48;3.70;;;35.60;92.70;;;;;;5054782;28;20028;-71
2022/07/30 09:21:24;;;;;;;10.32;3.55;;;35.80;92.20;;;;;;5054350;28;20139;-71
2022/07/30 09:24:02;;;;;;;6.47;3.63;;;35.80;92.00;;;;;;5053759;28;20080;-71
2022/07/30 09:26:29;;;;;;;9.25;3.40;;;35.80;92.50;;;;;;5054455;28;20063;-71
2022/07/30 09:29:14;;;;;;;10.00;3.88;;;36.00;91.90;;;;;;5054472;28;20033;-71
2022/07/30 09:31:53;;;;;;;9.52;3.67;;;36.10;91.90;;;;;;5054478;28;20076;-71
2022/07/30 09:34:27;;;;;;;5.57;3.20;;;36.20;91.50;;;;;;5054357;28;20040;-71
2022/07/30 09:36:55;;;;;;;7.03;3.50;;;36.30;91.10;;;;;;5054195;28;20074;-71
2022/07/30 09:39:36;;;;;;;5.30;3.17;;;36.20;91.30;;;;;;5054125;28;20040;-71
2022/07/30 09:42:15;;;;;;;9.38;3.28;;;36.20;91.10;;;;;;5054441;28;20029;-71
2022/07/30 09:44:41;;;;;;;10.15;3.90;;;35.90;91.20;;;;;;5054384;28;20096;-71
2022/07/30 09:47:07;;;;;;;6.50;3.40;;;35.80;91.60;;;;;;5053880;28;20029;-71
2022/07/30 09:49:33;;;;;;;10.50;3.55;;;35.60;91.80;;;;;;5054104;28;20025;-71
2022/07/30 09:52:00;;;;;;;8.70;3.67;;;35.50;92.70;;;;;;5053732;28;20104;-71
2022/07/30 09:54:47;;;;;;;9.35;3.92;;;35.50;92.90;;;;;;5051999;28;20040;-71
2022/07/30 09:57:13;;;;;;;8.60;3.97;;;35.80;93.20;;;;;;5053451;28;20025;-71
2022/07/30 09:59:39;;;;;;;11.52;4.30;;;35.70;93.10;;;;;;5053672;28;20473;-71
2022/07/30 10:02:05;;;;;;;;;;;35.40;93.50;;;;;;5053618;28;20027;-71
2022/07/30 10:04:32;;;;;;;11.63;3.90;;;35.40;93.80;;;;;;5053464;28;20348;-71
2022/07/30 10:07:00;;;;;;;9.65;3.80;;;35.30;93.70;;;;;;5052760;28;20336;-71
2022/07/30 10:09:29;;;;;;;11.50;3.97;;;35.30;93.50;;;;;;5052964;28;20027;-71
2022/07/30 10:12:00;;;;;;;8.07;3.92;;;35.10;93.40;;;;;;5052898;28;20051;-70
2022/07/30 10:14:34;;;;;;;8.73;3.60;;;35.20;93.20;;;;;;5052603;28;20033;-71
2022/07/30 10:17:02;;;;;;;14.63;4.03;;;35.20;93.20;;;;;;5053166;28;20040;-71
2022/07/30 10:19:30;;;;;;;6.72;3.72;;;35.30;93.40;;;;;;5051487;28;20116;-70
2022/07/30 10:21:57;;;;;;;9.73;3.60;;;35.20;93.60;;;;;;5052772;28;20112;-71
2022/07/30 10:24:24;;;;;;;7.72;3.30;;;35.20;93.60;;;;;;5052305;28;20044;-71
2022/07/30 10:26:52;;;;;;;8.35;3.38;;;35.20;92.80;;;;;;5053071;28;20056;-71
2022/07/30 10:29:19;;;;;;;7.85;3.28;;;35.00;92.60;;;;;;5052622;28;20449;-71
2022/07/30 10:31:49;;;;;;;8.57;3.33;;;35.00;92.40;;;;;;5052730;28;20075;-73
2022/07/30 10:34:19;;;;;;;6.60;3.00;;;34.90;92.30;;;;;;5052539;28;20114;-71
2022/07/30 10:36:51;;;;;;;15.63;3.55;;;34.90;92.40;;;;;;5052898;28;20465;-70
2022/07/30 10:39:46;;;;;;;12.02;3.60;;;35.00;92.50;;;;;;5052716;28;20040;-71
2022/07/30 10:42:21;;;;;;;9.35;3.15;;;34.80;92.60;;;;;;5051780;28;20346;-72
2022/07/30 10:45:11;;;;;;;13.05;3.55;;;34.80;92.60;;;;;;5052734;28;20457;-71
2022/07/30 10:47:38;;;;;;;9.30;3.20;;;34.90;92.70;;;;;;5052550;28;20080;-72
2022/07/30 10:50:13;;;;;;;8.57;3.60;;;34.80;92.60;;;;;;5052239;28;20100;-71
2022/07/30 10:52:50;;;;;;;8.80;3.10;;;34.80;92.60;;;;;;5052417;28;20029;-71
2022/07/30 10:55:25;;;;;;;33.17;4.03;;;34.80;92.50;;;;;;5052526;28;20048;-71
2022/07/30 10:58:03;;;;;;;12.77;3.63;;;35.00;92.30;;;;;;5052198;28;20025;-71
2022/07/30 11:00:34;;;;;;;6.78;3.10;;;35.00;92.80;;;;;;5052747;28;20132;-71
2022/07/30 11:03:19;;;;;;;9.77;3.10;;;34.60;93.00;;;;;;5052214;28;20021;-71
2022/07/30 11:05:47;;;;;;;8.48;2.78;;;34.60;93.60;;;;;;5052416;28;20033;-71
2022/07/30 11:08:34;;;;;;;7.18;3.30;;;34.30;94.60;;;;;;5052471;28;20019;-71
2022/07/30 11:11:00;;;;;;;11.85;2.95;;;34.30;94.90;;;;;;5052305;28;20080;-71
2022/07/30 11:13:51;;;;;;;10.10;3.03;;;34.40;95.40;;;;;;5052041;28;20500;-72
2022/07/30 11:16:22;;;;;;;6.78;3.00;;;34.30;95.60;;;;;;5052646;28;20036;-71
2022/07/30 11:19:10;;;;;;;7.18;2.70;;;34.50;96.30;;;;;;5052280;28;20083;-71
2022/07/30 11:21:37;;;;;;;7.75;3.10;;;34.70;96.20;;;;;;5052804;28;20021;-72
2022/07/30 11:24:03;;;;;;;6.25;3.20;;;34.70;96.50;;;;;;5052719;28;20053;-71
2022/07/30 11:26:38;;;;;;;10.27;3.60;;;34.70;97.40;;;;;;5052694;28;20025;-71
2022/07/30 11:29:07;;;;;;;9.65;3.90;;;34.50;97.80;;;;;;5053045;28;20119;-70
2022/07/30 11:31:36;;;;;;;8.07;3.63;;;34.50;98.60;;;;;;5053049;28;20021;-71
2022/07/30 11:34:20;;;;;;;10.25;3.50;;;34.60;99.50;;;;;;5050978;28;20171;-71
2022/07/30 11:37:14;;;;;;;7.32;3.58;;;34.60;99.90;;;;;;5052866;28;20564;-71
2022/07/30 11:39:52;;;;;;;7.57;3.38;;;34.80;99.90;;;;;;5051829;28;20040;-71
2022/07/30 11:42:30;;;;;;;6.70;3.50;;;35.00;99.90;;;;;;5052412;28;20029;-71
2022/07/30 11:45:15;;;;;;;6.82;3.33;;;35.10;99.90;;;;;;5052471;28;20025;-70
2022/07/30 11:47:45;;;;;;;7.63;4.13;;;34.90;99.90;;;;;;5052716;28;20036;-71
2022/07/30 11:50:19;;;;;;;4.88;3.00;;;34.70;99.90;;;;;;5052315;28;20020;-72
2022/07/30 11:52:57;;;;;;;7.10;3.60;;;34.50;99.90;;;;;;5051867;28;20445;-71
2022/07/30 11:55:29;;;;;;;8.23;3.60;;;34.60;99.90;;;;;;5052306;28;20075;-71
2022/07/30 11:57:57;;;;;;;5.43;3.45;;;34.30;99.90;;;;;;5052487;28;20029;-71
2022/07/30 12:00:24;;;;;;;6.43;3.53;;;34.30;99.90;;;;;;5051690;28;20104;-71
2022/07/30 12:02:51;;;;;;;7.22;3.45;;;34.20;99.90;;;;;;5051746;28;20029;-71
2022/07/30 12:05:26;;;;;;;8.63;3.55;;;34.50;99.90;;;;;;5051931;28;20044;-71
2022/07/30 12:07:57;;;;;;;9.63;3.50;;;34.20;99.90;;;;;;5051718;28;20025;-71
2022/07/30 12:10:24;;;;;;;13.25;3.75;;;34.30;99.90;;;;;;5051714;28;20434;-71
2022/07/30 12:12:50;;;;;;;13.73;3.50;;;34.30;99.90;;;;;;5051890;28;20374;-71
2022/07/30 12:15:33;;;;;;;9.90;3.22;;;34.30;99.70;;;;;;5051481;28;20044;-71
2022/07/30 12:18:00;;;;;;;9.93;3.20;;;34.40;99.80;;;;;;5051763;28;20063;-71
2022/07/30 12:20:27;;;;;;;13.68;3.78;;;34.50;99.80;;;;;;5051689;28;20051;-71
2022/07/30 12:22:53;;;;;;;8.25;2.85;;;34.10;99.90;;;;;;5051902;28;20036;-71
2022/07/30 12:25:20;;;;;;;11.35;3.90;;;34.20;99.90;;;;;;5050462;28;20033;-71
2022/07/30 12:27:47;;;;;;;8.85;3.53;;;34.20;99.90;;;;;;5052070;28;20437;-71
2022/07/30 12:30:15;;;;;;;11.00;3.13;;;34.30;99.90;;;;;;5054591;28;20039;-71
2022/07/30 12:32:46;;;;;;;8.07;3.58;;;34.40;99.90;;;;;;5055971;28;20044;-71
2022/07/30 12:35:12;;;;;;;9.40;3.08;;;34.40;99.90;;;;;;5056289;28;20033;-71
2022/07/30 12:37:39;;;;;;;10.77;3.10;;;34.60;99.90;;;;;;5055783;28;20025;-71
2022/07/30 12:40:08;;;;;;;9.43;2.95;;;34.70;99.90;;;;;;5055704;28;20504;-71
2022/07/30 12:42:35;;;;;;;9.40;3.20;;;34.60;99.90;;;;;;5054250;28;20020;-71
2022/07/30 12:45:01;;;;;;;9.95;3.20;;;34.60;99.90;;;;;;5055663;28;20029;-71
2022/07/30 12:47:29;;;;;;;7.10;3.03;;;34.40;99.90;;;;;;5055920;28;20431;-71
2022/07/30 12:49:58;;;;;;;8.15;3.10;;;34.20;99.90;;;;;;5056196;28;20056;-71
2022/07/30 12:52:31;;;;;;;8.48;2.75;;;34.20;99.90;;;;;;5055905;28;20460;-71